KIWD Weather

FAA AWOS (Automated Weather Observing System)

Weather observations for the last 3 days click here.

KIWD

METAR
KIWD 191556Z AUTO 22016G28KT 10SM BKN026 OVC085 14/08 A2962 RMK AO2 PK WND 22028/1547 SLP031 T01390078 PNO $
KIWD 191456Z AUTO 23015G24KT 10SM OVC028 12/08 A2965 RMK AO2 PK WND 24026/1426 SLP042 6//// T01220078 58024 PNO $
TAF
KIWD 191604Z 1916/2012 22016G28KT P6SM BKN025 FM191900 27013G21KT P6SM VCSH BKN040 FM200000 30014G22KT P6SM BKN040